Aviation Digital Data Service (ADDS)

Output produced by METARs form (0153 UTC 01 July 2015)
found at http://aviationweather.gov/adds/metars/
 
KECG 010118Z 0101/0124 23010KT P6SM BKN200